Time,TemperatureF,DewpointF,PressureIn,WindDirection,WindDirectionDegrees,WindSpeedMPH,WindSpeedGustMPH,Humidity,HourlyPrecipIn,Conditions,Clouds,dailyrainin,SoftwareType,DateUTC
2013-02-09 00:00:00,53.3,28.2,29.73,SE,135,1.8,2.7,38,0.00,,,0.00,WUHU216HW,2013-02-09 07:00:00,
2013-02-09 00:03:00,53.3,28.2,29.73,SE,135,1.1,1.1,38,0.00,,,0.00,WUHU216HW,2013-02-09 07:03:00,
2013-02-09 00:05:00,53.3,28.2,29.73,SE,135,1.1,2.0,38,0.00,,,0.00,WUHU216HW,2013-02-09 07:05:00,
2013-02-09 00:10:00,53.3,28.2,29.73,SE,135,1.1,1.8,38,0.00,,,0.00,WUHU216HW,2013-02-09 07:10:00,
2013-02-09 00:33:00,52.2,27.9,29.72,SE,135,3.8,3.8,39,0.00,,,0.00,WUHU216HW,2013-02-09 07:33:00,
2013-02-09 00:38:00,52.2,27.9,29.72,SE,135,3.8,3.8,39,0.00,,,0.00,WUHU216HW,2013-02-09 07:38:00,
2013-02-09 01:00:00,51.1,27.6,29.72,ESE,113,4.3,4.3,40,0.00,,,0.00,WUHU216HW,2013-02-09 08:00:00,
2013-02-09 01:05:00,51.1,27.6,29.72,ESE,113,4.3,4.3,40,0.00,,,0.00,WUHU216HW,2013-02-09 08:05:00,
2013-02-09 01:30:00,50.6,26.5,29.72,SE,135,0.4,0.4,39,0.00,,,0.00,WUHU216HW,2013-02-09 08:30:00,
2013-02-09 01:35:00,50.6,26.5,29.72,SE,135,0.4,0.4,39,0.00,,,0.00,WUHU216HW,2013-02-09 08:35:00,
2013-02-09 02:00:00,49.7,24.9,29.70,ESE,113,1.8,1.8,38,0.00,,,0.00,WUHU216HW,2013-02-09 09:00:00,
2013-02-09 02:05:00,49.7,24.9,29.70,ESE,113,1.8,1.8,38,0.00,,,0.00,WUHU216HW,2013-02-09 09:05:00,
2013-02-09 02:30:00,48.2,23.7,29.69,ESE,113,3.4,3.4,38,0.00,,,0.00,WUHU216HW,2013-02-09 09:30:00,
2013-02-09 02:35:00,48.2,23.7,29.69,ESE,113,3.4,3.4,38,0.00,,,0.00,WUHU216HW,2013-02-09 09:35:00,
2013-02-09 03:00:00,47.5,24.4,29.68,ESE,113,5.1,5.1,40,0.00,,,0.00,WUHU216HW,2013-02-09 10:00:00,
2013-02-09 03:05:00,47.5,24.4,29.68,ESE,113,5.1,5.1,40,0.00,,,0.00,WUHU216HW,2013-02-09 10:05:00,
2013-02-09 03:30:00,47.9,24.0,29.67,ESE,113,2.7,2.7,39,0.00,,,0.00,WUHU216HW,2013-02-09 10:30:00,
2013-02-09 03:35:00,47.9,24.0,29.67,ESE,113,2.7,2.7,39,0.00,,,0.00,WUHU216HW,2013-02-09 10:35:00,
2013-02-09 04:00:00,48.1,23.5,29.67,SE,135,3.6,3.6,38,0.00,,,0.00,WUHU216HW,2013-02-09 11:00:00,
2013-02-09 04:05:00,48.1,23.5,29.67,SE,135,3.6,3.6,38,0.00,,,0.00,WUHU216HW,2013-02-09 11:05:00,
2013-02-09 04:30:00,49.3,24.7,29.66,ESE,113,4.7,4.7,38,0.00,,,0.00,WUHU216HW,2013-02-09 11:30:00,
2013-02-09 04:35:00,49.3,24.7,29.66,ESE,113,4.7,4.7,38,0.00,,,0.00,WUHU216HW,2013-02-09 11:35:00,
2013-02-09 05:00:00,49.0,24.3,29.66,SE,135,4.3,4.3,38,0.00,,,0.00,WUHU216HW,2013-02-09 12:00:00,
2013-02-09 05:05:00,49.0,24.3,29.66,SE,135,4.3,4.3,38,0.00,,,0.00,WUHU216HW,2013-02-09 12:05:00,
2013-02-09 05:30:00,48.6,25.4,29.66,SE,135,4.5,4.5,40,0.00,,,0.00,WUHU216HW,2013-02-09 12:30:00,
2013-02-09 05:35:00,48.6,25.4,29.66,SE,135,4.5,4.5,40,0.00,,,0.00,WUHU216HW,2013-02-09 12:35:00,
2013-02-09 06:00:00,48.4,26.3,29.65,ESE,113,5.6,5.6,42,0.00,,,0.00,WUHU216HW,2013-02-09 13:00:00,
2013-02-09 06:05:00,48.4,26.3,29.65,ESE,113,5.6,5.6,42,0.00,,,0.00,WUHU216HW,2013-02-09 13:05:00,
2013-02-09 06:30:00,48.2,27.2,29.65,South,180,5.4,5.4,44,0.00,,,0.00,WUHU216HW,2013-02-09 13:30:00,
2013-02-09 06:35:00,48.2,27.2,29.65,South,180,5.4,5.4,44,0.00,,,0.00,WUHU216HW,2013-02-09 13:35:00,
2013-02-09 07:00:00,47.9,26.8,29.66,SE,135,5.6,5.6,44,0.00,,,0.00,WUHU216HW,2013-02-09 14:00:00,
2013-02-09 07:05:00,47.9,26.8,29.66,SE,135,5.6,5.6,44,0.00,,,0.00,WUHU216HW,2013-02-09 14:05:00,
2013-02-09 07:30:00,47.3,26.9,29.67,ESE,113,2.7,2.7,45,0.00,,,0.00,WUHU216HW,2013-02-09 14:30:00,
2013-02-09 07:35:00,47.3,26.9,29.67,ESE,113,2.7,2.7,45,0.00,,,0.00,WUHU216HW,2013-02-09 14:35:00,
2013-02-09 08:00:00,47.9,26.8,29.67,SE,135,1.1,1.1,44,0.00,,,0.00,WUHU216HW,2013-02-09 15:00:00,
2013-02-09 08:05:00,47.9,26.8,29.67,SE,135,1.1,1.1,44,0.00,,,0.00,WUHU216HW,2013-02-09 15:05:00,
2013-02-09 08:30:00,51.8,26.9,29.67,SE,135,1.6,1.6,38,0.00,,,0.00,WUHU216HW,2013-02-09 15:30:00,
2013-02-09 08:35:00,51.8,26.9,29.67,SE,135,1.6,1.6,38,0.00,,,0.00,WUHU216HW,2013-02-09 15:35:00,
2013-02-09 09:00:00,57.2,21.3,29.67,SW,225,6.7,6.7,25,0.00,,,0.00,WUHU216HW,2013-02-09 16:00:00,
2013-02-09 09:05:00,57.2,21.3,29.67,SW,225,6.7,6.7,25,0.00,,,0.00,WUHU216HW,2013-02-09 16:05:00,
2013-02-09 09:30:00,59.8,20.6,29.67,SSW,203,5.4,5.4,22,0.00,,,0.00,WUHU216HW,2013-02-09 16:30:00,
2013-02-09 09:35:00,59.8,20.6,29.67,SSW,203,5.4,5.4,22,0.00,,,0.00,WUHU216HW,2013-02-09 16:35:00,
2013-02-09 10:00:00,61.9,17.4,29.66,SW,225,5.8,5.8,18,0.00,,,0.00,WUHU216HW,2013-02-09 17:00:00,
2013-02-09 10:05:00,61.9,17.4,29.66,SSW,203,8.5,8.5,18,0.00,,,0.00,WUHU216HW,2013-02-09 17:05:00,
2013-02-09 10:10:00,61.9,17.4,29.66,SSW,203,8.5,8.5,18,0.00,,,0.00,WUHU216HW,2013-02-09 17:10:00,
2013-02-09 10:30:00,63.7,15.7,29.66,SSW,203,7.4,7.4,16,0.00,,,0.00,WUHU216HW,2013-02-09 17:30:00,
2013-02-09 10:35:00,63.7,15.7,29.66,SSW,203,7.4,7.4,16,0.00,,,0.00,WUHU216HW,2013-02-09 17:35:00,
2013-02-09 11:00:00,65.5,15.5,29.66,West,270,11.6,11.6,15,0.00,,,0.00,WUHU216HW,2013-02-09 18:00:00,
2013-02-09 11:05:00,65.5,15.5,29.66,West,270,11.6,11.6,15,0.00,,,0.00,WUHU216HW,2013-02-09 18:05:00,
2013-02-09 11:30:00,66.1,15.8,29.65,WSW,248,8.5,8.5,15,0.00,,,0.00,WUHU216HW,2013-02-09 18:30:00,
2013-02-09 11:35:00,66.1,15.8,29.65,WSW,248,8.5,8.5,15,0.00,,,0.00,WUHU216HW,2013-02-09 18:35:00,
2013-02-09 12:00:00,66.6,16.3,29.64,WSW,248,12.5,12.5,15,0.00,,,0.00,WUHU216HW,2013-02-09 19:00:00,
2013-02-09 12:05:00,66.6,16.3,29.64,WSW,248,12.5,12.5,15,0.00,,,0.00,WUHU216HW,2013-02-09 19:05:00,
2013-02-09 12:30:00,66.2,20.8,29.62,WSW,248,13.4,13.4,18,0.00,,,0.00,WUHU216HW,2013-02-09 19:30:00,
2013-02-09 12:35:00,66.2,20.8,29.62,WSW,248,13.4,13.4,18,0.00,,,0.00,WUHU216HW,2013-02-09 19:35:00,
2013-02-09 13:00:00,66.2,22.3,29.62,WSW,248,23.7,23.7,19,0.00,,,0.00,WUHU216HW,2013-02-09 20:00:00,
2013-02-09 13:05:00,66.2,22.3,29.62,West,270,25.9,25.9,19,0.00,,,0.00,WUHU216HW,2013-02-09 20:05:00,
2013-02-09 13:30:00,64.3,20.8,29.62,SW,225,19.2,19.2,19,0.00,,,0.00,WUHU216HW,2013-02-09 20:30:00,
2013-02-09 13:35:00,64.3,20.8,29.62,SW,225,19.2,19.2,19,0.00,,,0.00,WUHU216HW,2013-02-09 20:35:00,
2013-02-09 14:00:00,63.7,20.3,29.62,SW,225,22.8,22.8,19,0.00,,,0.00,WUHU216HW,2013-02-09 21:00:00,
2013-02-09 14:05:00,63.7,20.3,29.62,SW,225,22.8,22.8,19,0.00,,,0.00,WUHU216HW,2013-02-09 21:05:00,
2013-02-09 14:30:00,62.3,21.8,29.63,West,270,23.7,23.7,21,0.00,,,0.00,WUHU216HW,2013-02-09 21:30:00,
2013-02-09 14:35:00,62.3,21.8,29.63,West,270,23.7,23.7,21,0.00,,,0.00,WUHU216HW,2013-02-09 21:35:00,
2013-02-09 15:00:00,59.2,23.1,29.65,WSW,248,21.3,21.3,25,0.00,,,0.00,WUHU216HW,2013-02-09 22:00:00,
2013-02-09 15:05:00,59.0,22.9,29.65,WSW,248,21.3,21.3,25,0.00,,,0.00,WUHU216HW,2013-02-09 22:05:00,
2013-02-09 15:10:00,59.0,22.9,29.65,WSW,248,21.3,21.3,25,0.00,,,0.00,WUHU216HW,2013-02-09 22:10:00,
2013-02-09 15:30:00,55.8,23.9,29.67,WNW,293,16.6,16.6,29,0.00,,,0.00,WUHU216HW,2013-02-09 22:30:00,
2013-02-09 15:35:00,55.8,23.9,29.67,WNW,293,16.6,16.6,29,0.00,,,0.00,WUHU216HW,2013-02-09 22:35:00,
2013-02-09 16:00:00,54.4,23.6,29.69,West,270,12.3,12.3,30,0.00,,,0.00,WUHU216HW,2013-02-09 23:00:00,
2013-02-09 16:05:00,54.4,23.6,29.69,West,270,12.3,12.3,30,0.00,,,0.00,WUHU216HW,2013-02-09 23:05:00,
2013-02-09 16:30:00,52.7,23.6,29.70,West,270,13.6,13.6,32,0.00,,,0.00,WUHU216HW,2013-02-09 23:30:00,
2013-02-09 16:35:00,52.7,23.6,29.70,West,270,13.6,13.6,32,0.00,,,0.00,WUHU216HW,2013-02-09 23:35:00,
2013-02-09 17:00:00,51.8,22.8,29.71,West,270,15.0,15.0,32,0.00,,,0.00,WUHU216HW,2013-02-10 00:00:00,
2013-02-09 17:05:00,51.8,22.8,29.71,West,270,15.0,15.0,32,0.00,,,0.00,WUHU216HW,2013-02-10 00:05:00,
2013-02-09 17:30:00,50.8,21.8,29.73,West,270,12.8,12.8,32,0.00,,,0.00,WUHU216HW,2013-02-10 00:30:00,
2013-02-09 17:35:00,50.8,21.8,29.73,West,270,12.8,12.8,32,0.00,,,0.00,WUHU216HW,2013-02-10 00:35:00,
2013-02-09 18:00:00,49.3,20.6,29.74,NW,315,9.2,9.2,32,0.00,,,0.00,WUHU216HW,2013-02-10 01:00:00,
2013-02-09 18:05:00,49.3,20.6,29.74,NW,315,9.2,9.2,32,0.00,,,0.00,WUHU216HW,2013-02-10 01:05:00,
2013-02-09 18:30:00,48.4,19.2,29.75,West,270,11.6,11.6,31,0.00,,,0.00,WUHU216HW,2013-02-10 01:30:00,
2013-02-09 18:35:00,48.4,19.2,29.75,West,270,11.6,11.6,31,0.00,,,0.00,WUHU216HW,2013-02-10 01:35:00,
2013-02-09 19:00:00,47.5,15.8,29.76,West,270,9.8,9.8,28,0.00,,,0.00,WUHU216HW,2013-02-10 02:00:00,
2013-02-09 19:05:00,47.5,15.8,29.76,West,270,9.8,9.8,28,0.00,,,0.00,WUHU216HW,2013-02-10 02:05:00,
2013-02-09 19:30:00,46.8,14.3,29.77,West,270,11.4,11.4,27,0.00,,,0.00,WUHU216HW,2013-02-10 02:30:00,
2013-02-09 19:35:00,46.8,14.3,29.77,West,270,11.4,11.4,27,0.00,,,0.00,WUHU216HW,2013-02-10 02:35:00,
2013-02-09 20:00:00,46.4,14.0,29.78,West,270,13.0,13.0,27,0.00,,,0.00,WUHU216HW,2013-02-10 03:00:00,
2013-02-09 20:05:00,46.4,14.0,29.78,West,270,13.0,13.0,27,0.00,,,0.00,WUHU216HW,2013-02-10 03:05:00,
2013-02-09 20:30:00,45.7,14.3,29.79,West,270,6.9,6.9,28,0.00,,,0.00,WUHU216HW,2013-02-10 03:30:00,
2013-02-09 20:35:00,45.7,14.3,29.79,West,270,6.9,6.9,28,0.00,,,0.00,WUHU216HW,2013-02-10 03:35:00,
2013-02-09 21:00:00,45.0,14.6,29.79,WNW,293,8.5,8.5,29,0.00,,,0.00,WUHU216HW,2013-02-10 04:00:00,
2013-02-09 21:05:00,45.0,14.6,29.79,WNW,293,8.5,8.5,29,0.00,,,0.00,WUHU216HW,2013-02-10 04:05:00,
2013-02-09 21:30:00,44.8,14.4,29.80,NW,315,7.8,7.8,29,0.00,,,0.00,WUHU216HW,2013-02-10 04:30:00,
2013-02-09 21:35:00,44.8,14.4,29.80,NW,315,7.8,7.8,29,0.00,,,0.00,WUHU216HW,2013-02-10 04:35:00,
2013-02-09 22:00:00,44.3,15.5,29.81,West,270,9.8,9.8,31,0.00,,,0.00,WUHU216HW,2013-02-10 05:00:00,
2013-02-09 22:05:00,44.3,15.5,29.81,West,270,9.8,9.8,31,0.00,,,0.00,WUHU216HW,2013-02-10 05:05:00,
2013-02-09 22:30:00,43.6,15.5,29.82,West,270,10.7,10.7,32,0.00,,,0.00,WUHU216HW,2013-02-10 05:30:00,
2013-02-09 22:35:00,43.6,15.5,29.82,West,270,10.7,10.7,32,0.00,,,0.00,WUHU216HW,2013-02-10 05:35:00,
2013-02-09 23:00:00,43.0,15.7,29.81,WNW,293,8.9,8.9,33,0.00,,,0.00,WUHU216HW,2013-02-10 06:00:00,
2013-02-09 23:05:00,43.0,15.7,29.81,WNW,293,8.9,8.9,33,0.00,,,0.00,WUHU216HW,2013-02-10 06:05:00,
2013-02-09 23:30:00,42.8,16.2,29.81,West,270,12.5,12.5,34,0.00,,,0.00,WUHU216HW,2013-02-10 06:30:00,
2013-02-09 23:35:00,42.8,16.2,29.81,West,270,12.5,12.5,34,0.00,,,0.00,WUHU216HW,2013-02-10 06:35:00,
2013-02-09 23:54:00,42.5,16.6,29.81,NW,315,10.7,10.7,35,0.00,,,0.00,WUHU216HW,2013-02-10 06:54:00,
2013-02-09 23:59:00,42.3,16.4,29.81,West,270,8.5,11.6,35,0.00,,,0.00,WUHU216HW,2013-02-10 06:59:00,